Time;durP1;ratioP1;P1;durP2;ratioP2;P2;SDS_P1;SDS_P2;PMS_P1;PMS_P2;Temp;Humidity;BMP_temperature;BMP_pressure;BME280_temperature;BME280_humidity;BME280_pressure;Samples;Min_cycle;Max_cycle;Signal;HPM_P1;HPM_P2
2023/03/16 00:00:19;;;;;;;;;;;;;;;23.14;26.09;96813.28;4880946;29;991;-75
2023/03/16 00:02:44;;;;;;;;;;;;;;;23.12;26.07;96810.16;4910202;29;1254;-74
2023/03/16 00:05:10;;;;;;;;;;;;;;;23.26;25.71;96802.97;4918181;29;913;-75
2023/03/16 00:07:35;;;;;;;;;;;;;;;22.87;26.53;96811.41;4906056;29;1153;-75
2023/03/16 00:10:02;;;;;;;;;;;;;;;22.84;26.93;96823.69;4921310;29;1626;-75
2023/03/16 00:12:27;;;;;;;;;;;;;;;22.81;26.96;96821.84;4937185;29;1060;-75
2023/03/16 00:14:53;;;;;;;;;;;;;;;22.93;26.92;96830.63;4921264;29;1163;-74
2023/03/16 00:17:19;;;;;;;;;;;;;;;22.49;27.32;96831.16;4936898;29;1906;-74
2023/03/16 00:19:53;;;;;;;;;;;;;;;22.41;27.44;96829.91;4921364;29;1030;-75
2023/03/16 00:22:26;;;;;;;;;;;;;;;22.94;26.91;96826.50;4905731;29;1059;-75
2023/03/16 00:24:52;;;;;;;;;;;;;;;22.69;27.22;96825.69;4953099;29;972;-75
2023/03/16 00:27:17;;;;;;;;;;;;;;;23.53;26.10;96821.03;4990771;28;949;-75
2023/03/16 00:29:46;;;;;;;;;;;;;;;23.07;26.69;96829.91;4962676;28;1155;-75
2023/03/16 00:32:15;;;;;;;;;;;;;;;22.66;27.25;96823.81;4963850;28;927;-75
2023/03/16 00:34:41;;;;;;;;;;;;;;;22.98;26.49;96829.97;4963587;28;908;-74
2023/03/16 00:37:09;;;;;;;;;;;;;;;23.06;26.35;96834.00;4974802;28;1911;-74
2023/03/16 00:39:35;;;;;;;;;;;;;;;23.01;26.53;96826.16;4936453;29;983;-75
2023/03/16 00:42:01;;;;;;;;;;;;;;;22.83;26.60;96833.47;4936527;29;990;-75
2023/03/16 00:44:26;;;;;;;;;;;;;;;22.97;26.66;96831.22;4920731;29;984;-74
2023/03/16 00:46:52;;;;;;;;;;;;;;;23.07;26.36;96835.56;4936819;29;955;-75
2023/03/16 00:49:17;;;;;;;;;;;;;;;22.77;26.89;96835.41;4920346;29;1054;-75
2023/03/16 00:51:44;;;;;;;;;;;;;;;22.85;26.75;96836.63;4920719;29;1220;-75
2023/03/16 00:54:11;;;;;;;;;;;;;;;23.07;26.58;96835.56;4936645;29;1004;-75
2023/03/16 00:56:37;;;;;;;;;;;;;;;22.96;26.85;96841.00;4936446;29;1903;-75
2023/03/16 00:59:04;;;;;;;;;;;;;;;22.68;26.97;96843.94;4936592;29;1012;-75
2023/03/16 01:01:31;;;;;;;;;;;;;;;22.55;27.46;96835.69;4920721;29;1283;-75
2023/03/16 01:03:58;;;;;;;;;;;;;;;23.15;26.42;96836.75;4936324;29;1178;-75
2023/03/16 01:06:24;;;;;;;;;;;;;;;22.88;26.94;96844.19;4936280;29;981;-75
2023/03/16 01:08:51;;;;;;;;;;;;;;;22.96;26.84;96832.50;4920406;29;1161;-74
2023/03/16 01:11:17;;;;;;;;;;;;;;;23.57;25.89;96824.44;4966963;28;1041;-75
2023/03/16 01:13:43;;;;;;;;;;;;;;;22.84;26.79;96822.91;4996257;28;981;-75
2023/03/16 01:16:09;;;;;;;;;;;;;;;22.63;26.99;96827.59;4963074;28;1969;-75
2023/03/16 01:18:35;;;;;;;;;;;;;;;22.92;26.60;96829.84;4946981;28;1106;-74
2023/03/16 01:21:01;;;;;;;;;;;;;;;23.08;26.21;96845.66;4996466;28;976;-74
2023/03/16 01:23:29;;;;;;;;;;;;;;;22.90;26.83;96842.91;4978784;28;993;-75
2023/03/16 01:25:55;;;;;;;;;;;;;;;22.94;26.59;96849.19;4962957;28;1192;-75
2023/03/16 01:28:23;;;;;;;;;;;;;;;22.90;26.85;96842.91;4962885;28;1651;-75
2023/03/16 01:30:52;;;;;;;;;;;;;;;22.77;26.97;96843.91;4958402;28;1199;-75
2023/03/16 01:33:19;;;;;;;;;;;;;;;22.87;26.86;96845.44;4958481;28;1337;-75
2023/03/16 01:35:51;;;;;;;;;;;;;;;22.60;27.14;96848.41;4958409;28;1189;-75
2023/03/16 01:38:17;;;;;;;;;;;;;;;22.42;27.43;96851.31;4958012;28;1907;-75
2023/03/16 01:40:42;;;;;;;;;;;;;;;22.63;27.47;96855.94;4958029;28;1081;-75
2023/03/16 01:43:09;;;;;;;;;;;;;;;23.32;26.27;96863.47;4974371;28;1297;-75
2023/03/16 01:45:56;;;;;;;;;;;;;;;23.04;26.48;96856.38;4958574;28;1492;-75
2023/03/16 01:48:23;;;;;;;;;;;;;;;23.31;26.24;96844.88;4942218;28;1285;-75
2023/03/16 01:50:51;;;;;;;;;;;;;;;22.83;26.94;96850.50;4958319;28;1145;-75
2023/03/16 01:53:17;;;;;;;;;;;;;;;23.26;26.27;96851.22;4935443;29;1456;-75
2023/03/16 01:55:42;;;;;;;;;;;;;;;22.76;27.03;96861.41;4935689;29;1369;-74
2023/03/16 01:58:08;;;;;;;;;;;;;;;22.95;26.49;96857.25;4935699;29;1910;-75
2023/03/16 02:00:33;;;;;;;;;;;;;;;22.86;26.81;96866.56;4935840;29;1153;-75
2023/03/16 02:03:15;;;;;;;;;;;;;;;23.03;26.37;96861.28;4938690;29;1148;-75
2023/03/16 02:06:05;;;;;;;;;;;;;;;22.47;27.33;96856.34;4953955;28;1259;-74
2023/03/16 02:08:32;;;;;;;;;;;;;;;22.63;27.22;96864.44;4900366;29;1262;-75
2023/03/16 02:10:58;;;;;;;;;;;;;;;22.57;27.63;96867.16;4901510;29;1166;-75
2023/03/16 02:13:35;;;;;;;;;;;;;;;22.76;27.05;96873.53;4901367;29;1103;-75
2023/03/16 02:16:02;;;;;;;;;;;;;;;22.73;27.02;96885.84;4901811;29;1189;-75
2023/03/16 02:18:28;;;;;;;;;;;;;;;22.88;26.99;96881.06;4901134;29;1919;-75
2023/03/16 02:21:29;;;;;;;;;;;;;;;22.49;27.86;96882.19;4901225;29;1084;-76
2023/03/16 02:23:54;;;;;;;;;;;;;;;22.79;27.03;96886.75;4870521;29;1145;-75
2023/03/16 02:26:28;;;;;;;;;;;;;;;23.07;26.58;96892.31;4866903;29;1083;-75
2023/03/16 02:29:06;;;;;;;;;;;;;;;23.28;26.04;96891.22;4845384;29;1154;-75
2023/03/16 02:31:32;;;;;;;;;;;;;;;23.11;25.91;96878.75;4830001;29;1386;-75
2023/03/16 02:33:59;;;;;;;;;;;;;;;23.10;26.32;96885.66;4830360;29;1293;-75
2023/03/16 02:36:24;;;;;;;;;;;;;;;23.11;26.45;96888.03;4830060;29;1903;-75
2023/03/16 02:38:50;;;;;;;;;;;;;;;23.07;26.58;96881.75;4799662;29;1212;-75
2023/03/16 02:41:17;;;;;;;;;;;;;;;22.97;26.76;96882.28;4830171;29;1193;-75
2023/03/16 02:43:51;;;;;;;;;;;;;;;22.81;27.09;96881.41;4830021;29;1386;-75
2023/03/16 02:46:25;;;;;;;;;;;;;;;22.39;27.82;96889.13;4876629;29;1218;-74
2023/03/16 02:49:01;;;;;;;;;;;;;;;22.63;27.59;96870.13;4885199;29;1014;-75
2023/03/16 02:51:27;;;;;;;;;;;;;;;22.98;27.17;96878.19;4885338;29;1012;-74
2023/03/16 02:53:53;;;;;;;;;;;;;;;22.78;26.98;96865.31;4885246;29;1022;-74
2023/03/16 02:56:21;;;;;;;;;;;;;;;22.70;27.26;96881.13;4885189;29;1970;-75
2023/03/16 02:58:46;;;;;;;;;;;;;;;22.90;27.15;96879.78;4898142;29;1107;-75
2023/03/16 03:01:16;;;;;;;;;;;;;;;22.77;27.22;96874.31;4926476;29;1141;-75
2023/03/16 03:03:42;;;;;;;;;;;;;;;23.07;26.46;96883.81;4941754;29;1307;-75
2023/03/16 03:06:08;;;;;;;;;;;;;;;22.83;26.57;96878.84;4941633;29;970;-74
2023/03/16 03:08:35;;;;;;;;;;;;;;;23.01;26.57;96877.22;4941599;29;1302;-75
2023/03/16 03:11:01;;;;;;;;;;;;;;;22.85;26.75;96887.69;4941703;29;1110;-75
2023/03/16 03:13:26;;;;;;;;;;;;;;;22.82;27.08;96888.63;4941768;29;1101;-75
2023/03/16 03:15:52;;;;;;;;;;;;;;;22.76;26.88;96887.72;4941628;29;953;-75
2023/03/16 03:18:24;;;;;;;;;;;;;;;22.57;27.36;96889.06;4937209;29;1985;-75
2023/03/16 03:20:50;;;;;;;;;;;;;;;22.79;27.41;96889.56;4937193;29;1172;-75
2023/03/16 03:23:15;;;;;;;;;;;;;;;22.22;28.00;96892.31;4884770;29;1336;-75
2023/03/16 03:25:41;;;;;;;;;;;;;;;22.59;27.64;96897.88;4884941;29;1087;-74
2023/03/16 03:28:07;;;;;;;;;;;;;;;22.76;27.16;96907.56;4884480;29;1355;-75
2023/03/16 03:30:33;;;;;;;;;;;;;;;22.97;26.86;96916.34;4884680;29;1227;-75
2023/03/16 03:33:00;;;;;;;;;;;;;;;22.72;27.18;96923.19;4934809;29;1285;-75
2023/03/16 03:35:25;;;;;;;;;;;;;;;23.46;26.46;96917.91;4919075;29;1017;-75
2023/03/16 03:37:51;;;;;;;;;;;;;;;22.58;27.59;96922.59;4918638;29;1988;-75
2023/03/16 03:40:18;;;;;;;;;;;;;;;22.98;27.02;96923.56;4903246;29;1319;-75
2023/03/16 03:42:46;;;;;;;;;;;;;;;22.98;26.82;96929.25;4903223;29;1050;-74
2023/03/16 03:45:12;;;;;;;;;;;;;;;22.66;27.05;96934.41;4903306;29;1004;-75
2023/03/16 03:47:39;;;;;;;;;;;;;;;22.79;26.98;96934.94;4903162;29;1130;-75
2023/03/16 03:50:06;;;;;;;;;;;;;;;22.81;27.23;96949.47;4918878;29;1366;-75
2023/03/16 03:52:38;;;;;;;;;;;;;;;22.91;27.05;96940.94;4921666;29;1712;-75
2023/03/16 03:55:04;;;;;;;;;;;;;;;22.72;27.08;96949.50;4921452;29;1284;-75
2023/03/16 03:57:30;;;;;;;;;;;;;;;22.71;27.19;96953.59;4905923;29;2012;-74
2023/03/16 03:59:55;;;;;;;;;;;;;;;22.74;27.50;96954.66;4921795;29;1104;-75
2023/03/16 04:02:41;;;;;;;;;;;;;;;22.59;27.53;96955.38;4924117;29;1180;-75
2023/03/16 04:05:15;;;;;;;;;;;;;;;22.73;27.26;96959.56;4921578;29;1128;-75
2023/03/16 04:07:41;;;;;;;;;;;;;;;22.64;27.48;96962.44;4905903;29;1311;-75
2023/03/16 04:10:10;;;;;;;;;;;;;;;22.90;27.11;96967.72;4902587;29;1237;-75
2023/03/16 04:12:39;;;;;;;;;;;;;;;22.78;27.10;96973.09;4902620;29;1353;-75
2023/03/16 04:15:07;;;;;;;;;;;;;;;22.40;27.90;96970.06;4910796;29;1329;-75
2023/03/16 04:17:43;;;;;;;;;;;;;;;22.48;27.59;96971.28;4906944;29;1970;-75
2023/03/16 04:20:13;;;;;;;;;;;;;;;23.07;26.60;96974.59;4905506;29;1822;-75
2023/03/16 04:22:41;;;;;;;;;;;;;;;22.74;26.96;96972.50;4917654;29;1333;-75
2023/03/16 04:25:08;;;;;;;;;;;;;;;23.02;26.55;96972.41;4871323;29;1438;-75
2023/03/16 04:27:36;;;;;;;;;;;;;;;22.50;27.18;96983.75;4864682;29;1294;-75
2023/03/16 04:30:04;;;;;;;;;;;;;;;23.08;26.87;96973.31;4849208;29;1250;-75
2023/03/16 04:32:30;;;;;;;;;;;;;;;22.75;27.24;96991.09;4864886;29;958;-75
2023/03/16 04:34:56;;;;;;;;;;;;;;;22.50;27.58;96991.47;4864661;29;1075;-75
2023/03/16 04:37:31;;;;;;;;;;;;;;;22.66;27.65;96988.25;4850357;29;2298;-75
2023/03/16 04:39:56;;;;;;;;;;;;;;;22.63;27.74;96989.22;4865327;29;1055;-75
2023/03/16 04:42:22;;;;;;;;;;;;;;;22.62;27.62;96993.31;4920952;29;1106;-75
2023/03/16 04:44:47;;;;;;;;;;;;;;;22.78;27.54;97001.44;4920660;29;1485;-75
2023/03/16 04:47:14;;;;;;;;;;;;;;;22.59;27.77;96994.28;4901644;29;1236;-75
2023/03/16 04:49:40;;;;;;;;;;;;;;;22.62;27.55;96998.97;4886338;29;1158;-75
2023/03/16 04:52:06;;;;;;;;;;;;;;;23.12;26.37;96996.66;4885994;29;1145;-75
2023/03/16 04:54:32;;;;;;;;;;;;;;;23.12;26.37;97005.16;4886135;29;1504;-75
2023/03/16 04:56:59;;;;;;;;;;;;;;;22.83;26.74;97003.66;4886356;29;1968;-75
2023/03/16 04:59:37;;;;;;;;;;;;;;;23.07;26.65;97011.50;4907685;29;1255;-75
2023/03/16 05:02:18;;;;;;;;;;;;;;;23.05;26.58;97017.66;4936211;29;1156;-74
2023/03/16 05:04:43;;;;;;;;;;;;;;;23.01;26.71;97013.41;4951082;28;1213;-74
2023/03/16 05:07:10;;;;;;;;;;;;;;;22.63;27.36;97023.22;4958650;28;1668;-74
2023/03/16 05:09:39;;;;;;;;;;;;;;;22.34;28.01;97024.53;4943165;28;1232;-75
2023/03/16 05:12:05;;;;;;;;;;;;;;;22.83;27.27;97023.50;4942626;28;1390;-75
2023/03/16 05:14:31;;;;;;;;;;;;;;;23.04;27.15;97029.44;4958651;28;1158;-75
2023/03/16 05:17:13;;;;;;;;;;;;;;;22.93;26.83;97023.50;4944041;28;1910;-75
2023/03/16 05:19:39;;;;;;;;;;;;;;;22.73;27.24;97027.63;4958293;28;1256;-74
2023/03/16 05:22:05;;;;;;;;;;;;;;;22.94;27.24;97028.69;4958514;28;1153;-75
2023/03/16 05:24:31;;;;;;;;;;;;;;;23.46;26.52;97037.94;4968138;28;1227;-75
2023/03/16 05:26:56;;;;;;;;;;;;;;;22.67;26.94;97035.19;4962700;28;1188;-74
2023/03/16 05:29:25;;;;;;;;;;;;;;;23.18;26.43;97050.69;4978717;28;1287;-75
2023/03/16 05:31:50;;;;;;;;;;;;;;;22.94;26.83;97048.56;4978684;28;1202;-75
2023/03/16 05:34:19;;;;;;;;;;;;;;;22.93;26.90;97046.19;4978465;28;1272;-73
2023/03/16 05:36:45;;;;;;;;;;;;;;;23.02;26.76;97054.69;4979008;28;1964;-73
2023/03/16 05:39:14;;;;;;;;;;;;;;;22.82;27.09;97047.47;4961981;28;1263;-73
2023/03/16 05:41:44;;;;;;;;;;;;;;;22.86;27.01;97039.56;4962561;28;1183;-72
2023/03/16 05:44:15;;;;;;;;;;;;;;;22.70;27.31;97051.28;4978948;28;1108;-73
2023/03/16 05:47:04;;;;;;;;;;;;;;;22.00;28.63;97053.94;4955012;28;992;-73
2023/03/16 05:49:32;;;;;;;;;;;;;;;22.63;27.84;97057.25;4939348;29;1265;-73
2023/03/16 05:52:01;;;;;;;;;;;;;;;22.31;28.14;97050.19;4954795;29;1535;-73
2023/03/16 05:54:29;;;;;;;;;;;;;;;22.73;27.20;97055.97;4939396;29;1269;-73
2023/03/16 05:56:55;;;;;;;;;;;;;;;22.47;27.99;97060.44;4954652;29;1915;-73
2023/03/16 05:59:20;;;;;;;;;;;;;;;22.75;27.79;97059.16;4938929;29;1158;-73
2023/03/16 06:01:51;;;;;;;;;;;;;;;22.35;28.00;97062.97;4954947;28;1174;-73
2023/03/16 06:04:20;;;;;;;;;;;;;;;23.35;26.72;97055.50;4954616;28;1083;-73
2023/03/16 06:06:47;;;;;;;;;;;;;;;23.07;26.98;97057.66;4923266;29;1123;-73
2023/03/16 06:09:18;;;;;;;;;;;;;;;22.69;27.12;97055.38;4954726;28;1253;-73
2023/03/16 06:11:44;;;;;;;;;;;;;;;22.56;27.30;97057.59;4938586;29;945;-72
2023/03/16 06:14:12;;;;;;;;;;;;;;;23.03;26.84;97061.94;4939097;29;1159;-73
2023/03/16 06:16:38;;;;;;;;;;;;;;;22.84;27.34;97067.59;4938727;29;1895;-73
2023/03/16 06:19:04;;;;;;;;;;;;;;;22.95;27.00;97072.84;4954807;29;965;-73
2023/03/16 06:21:31;;;;;;;;;;;;;;;22.44;27.75;97079.19;4938744;29;1419;-73
2023/03/16 06:24:03;;;;;;;;;;;;;;;22.26;28.19;97085.63;4952766;28;1156;-73
2023/03/16 06:26:28;;;;;;;;;;;;;;;22.63;27.97;97079.94;4978241;28;1055;-73
2023/03/16 06:28:54;;;;;;;;;;;;;;;22.54;28.03;97082.81;4978432;28;1184;-73
2023/03/16 06:31:21;;;;;;;;;;;;;;;22.66;27.83;97081.84;4946726;28;1255;-73
2023/03/16 06:33:46;;;;;;;;;;;;;;;23.40;26.77;97085.28;4978232;28;936;-73
2023/03/16 06:36:12;;;;;;;;;;;;;;;23.22;26.84;97091.03;4941469;28;1130;-73
2023/03/16 06:38:42;;;;;;;;;;;;;;;23.39;26.76;97092.25;4942190;28;1373;-73
2023/03/16 06:41:37;;;;;;;;;;;;;;;22.73;27.80;97095.69;4862207;29;1004;-73
2023/03/16 06:44:04;;;;;;;;;;;;;;;23.13;26.82;97100.38;4866455;29;1182;-74
2023/03/16 06:46:31;;;;;;;;;;;;;;;22.93;27.29;97109.38;4866850;29;1257;-73
2023/03/16 06:49:00;;;;;;;;;;;;;;;22.86;26.89;97119.00;4866843;29;1261;-74
2023/03/16 06:51:26;;;;;;;;;;;;;;;23.05;26.81;97121.81;4866343;29;1195;-73
2023/03/16 06:53:52;;;;;;;;;;;;;;;22.90;27.27;97121.72;4883354;29;2040;-73
2023/03/16 06:56:18;;;;;;;;;;;;;;;22.92;27.09;97119.16;4869590;29;1985;-74
2023/03/16 06:58:44;;;;;;;;;;;;;;;22.63;27.79;97125.31;4869749;29;1175;-73
2023/03/16 07:01:11;;;;;;;;;;;;;;;22.14;28.46;97123.41;4885100;29;1337;-73
2023/03/16 07:03:36;;;;;;;;;;;;;;;22.61;27.84;97116.50;4881319;29;1280;-74
2023/03/16 07:06:14;;;;;;;;;;;;;;;22.72;27.86;97128.13;4894751;29;1359;-74
2023/03/16 07:08:41;;;;;;;;;;;;;;;22.83;27.60;97128.44;4865280;29;1304;-74
2023/03/16 07:11:07;;;;;;;;;;;;;;;22.94;27.23;97127.19;4880613;29;1374;-74
2023/03/16 07:13:34;;;;;;;;;;;;;;;23.07;27.15;97130.66;4880594;29;1314;-75
2023/03/16 07:16:00;;;;;;;;;;;;;;;23.09;27.00;97142.31;4863040;29;1564;-74
2023/03/16 07:18:26;;;;;;;;;;;;;;;22.94;27.29;97141.38;4918397;28;1918;-74
2023/03/16 07:20:53;;;;;;;;;;;;;;;23.31;26.72;97148.56;4959437;28;1226;-75
2023/03/16 07:23:20;;;;;;;;;;;;;;;23.17;27.16;97143.56;4943770;28;1239;-74
2023/03/16 07:25:46;;;;;;;;;;;;;;;23.14;26.88;97153.00;4942400;28;1539;-74
2023/03/16 07:28:14;;;;;;;;;;;;;;;22.99;26.64;97147.19;4902268;29;1267;-74
2023/03/16 07:30:41;;;;;;;;;;;;;;;23.04;26.92;97148.63;4865015;29;1214;-74
2023/03/16 07:33:08;;;;;;;;;;;;;;;23.08;26.94;97144.34;4849392;29;1340;-75
2023/03/16 07:35:34;;;;;;;;;;;;;;;22.81;27.37;97150.03;4921939;29;1236;-75
2023/03/16 07:38:00;;;;;;;;;;;;;;;22.52;27.85;97164.69;4927616;29;1968;-75
2023/03/16 07:40:27;;;;;;;;;;;;;;;22.46;27.80;97158.84;4874554;29;1299;-74
2023/03/16 07:42:57;;;;;;;;;;;;;;;22.90;27.70;97166.28;4875920;29;1200;-74
2023/03/16 07:45:32;;;;;;;;;;;;;;;22.40;28.30;97168.47;4885378;29;1184;-74
2023/03/16 07:47:58;;;;;;;;;;;;;;;23.08;27.15;97166.28;4884163;29;1070;-75
2023/03/16 07:50:35;;;;;;;;;;;;;;;22.73;27.86;97175.09;4899865;29;1092;-74
2023/03/16 07:53:01;;;;;;;;;;;;;;;22.95;27.32;97168.47;4884251;29;1015;-75
2023/03/16 07:55:27;;;;;;;;;;;;;;;22.66;27.71;97180.28;4899570;29;1142;-74
2023/03/16 07:57:53;;;;;;;;;;;;;;;23.01;26.96;97177.97;4899984;29;1887;-74
2023/03/16 08:00:26;;;;;;;;;;;;;;;22.59;27.74;97192.75;4926063;29;1492;-75
2023/03/16 08:02:52;;;;;;;;;;;;;;;22.88;27.75;97187.41;4956343;29;1209;-73
2023/03/16 08:05:18;;;;;;;;;;;;;;;22.15;28.58;97192.97;4956033;28;950;-74
2023/03/16 08:07:48;;;;;;;;;;;;;;;22.42;28.03;97199.94;4969886;28;1180;-74
2023/03/16 08:10:21;;;;;;;;;;;;;;;22.57;28.06;97200.91;4995919;28;1108;-74
2023/03/16 08:13:05;;;;;;;;;;;;;;;22.48;27.89;97203.72;5000860;28;1119;-74
2023/03/16 08:15:32;;;;;;;;;;;;;;;23.01;26.75;97206.31;4998242;28;1449;-74
2023/03/16 08:18:05;;;;;;;;;;;;;;;22.87;27.06;97205.66;4982989;28;1934;-74
2023/03/16 08:20:32;;;;;;;;;;;;;;;22.88;26.91;97210.09;4998511;28;1701;-75
2023/03/16 08:22:59;;;;;;;;;;;;;;;23.02;27.09;97202.22;4998717;28;1388;-74
2023/03/16 08:25:29;;;;;;;;;;;;;;;22.85;27.30;97210.25;4982810;28;1052;-74
2023/03/16 08:28:03;;;;;;;;;;;;;;;22.83;27.22;97207.06;4998495;28;1198;-76
2023/03/16 08:30:29;;;;;;;;;;;;;;;22.87;27.84;97214.16;4966272;28;1180;-74
2023/03/16 08:33:19;;;;;;;;;;;;;;;22.47;28.29;97207.84;4942952;29;1005;-74
2023/03/16 08:35:45;;;;;;;;;;;;;;;22.43;28.17;97201.53;4940513;29;1329;-74
2023/03/16 08:38:13;;;;;;;;;;;;;;;22.29;28.22;97220.72;4940297;29;1910;-74
2023/03/16 08:40:40;;;;;;;;;;;;;;;22.61;28.02;97218.56;4918039;29;1463;-75
2023/03/16 08:43:07;;;;;;;;;;;;;;;22.19;28.32;97221.94;4918072;29;1603;-74
2023/03/16 08:45:33;;;;;;;;;;;;;;;21.65;29.51;97223.25;4886454;29;1482;-74
2023/03/16 08:47:59;;;;;;;;;;;;;;;22.48;27.89;97223.56;4880946;29;997;-74
2023/03/16 08:50:24;;;;;;;;;;;;;;;22.60;27.67;97223.44;4880280;29;1090;-74
2023/03/16 08:52:50;;;;;;;;;;;;;;;22.68;27.50;97223.91;4880538;29;985;-74
2023/03/16 08:55:15;;;;;;;;;;;;;;;22.64;27.53;97228.97;4880290;29;1008;-75
2023/03/16 08:57:43;;;;;;;;;;;;;;;22.63;27.86;97221.72;4898541;29;1986;-74
2023/03/16 09:00:13;;;;;;;;;;;;;;;22.37;27.79;97226.88;4883392;29;1077;-74
2023/03/16 09:02:41;;;;;;;;;;;;;;;22.47;27.89;97227.69;4898465;29;1102;-75
2023/03/16 09:05:08;;;;;;;;;;;;;;;22.30;27.96;97233.63;4883263;29;1019;-74
2023/03/16 09:07:35;;;;;;;;;;;;;;;22.40;27.58;97230.81;4883183;29;1066;-75
2023/03/16 09:10:01;;;;;;;;;;;;;;;22.28;27.86;97236.16;4913134;29;1029;-74
2023/03/16 09:12:27;;;;;;;;;;;;;;;22.23;27.83;97239.59;4936479;29;998;-74
2023/03/16 09:14:53;;;;;;;;;;;;;;;21.96;28.14;97242.28;4955721;29;989;-75
2023/03/16 09:17:19;;;;;;;;;;;;;;;22.23;27.69;97247.31;4957032;28;1910;-75
2023/03/16 09:19:45;;;;;;;;;;;;;;;21.89;28.29;97236.91;4978335;28;970;-75
2023/03/16 09:22:11;;;;;;;;;;;;;;;21.98;27.99;97245.47;4994336;28;987;-75
2023/03/16 09:24:37;;;;;;;;;;;;;;;22.20;27.70;97251.06;4994316;28;1196;-75
2023/03/16 09:27:04;;;;;;;;;;;;;;;22.22;27.54;97259.88;4994406;28;923;-75
2023/03/16 09:29:29;;;;;;;;;;;;;;;22.34;27.47;97259.78;4961955;28;1161;-75
2023/03/16 09:31:55;;;;;;;;;;;;;;;22.29;27.38;97259.59;4994109;28;1257;-75
2023/03/16 09:34:21;;;;;;;;;;;;;;;22.18;27.64;97254.38;5001421;28;1003;-75
2023/03/16 09:36:47;;;;;;;;;;;;;;;22.22;27.62;97266.34;5010960;28;1907;-75
2023/03/16 09:39:13;;;;;;;;;;;;;;;22.31;27.44;97263.53;5007004;28;1238;-75
2023/03/16 09:41:53;;;;;;;;;;;;;;;22.10;27.52;97264.38;5006734;28;1270;-75
2023/03/16 09:44:33;;;;;;;;;;;;;;;22.19;27.55;97272.94;4989430;28;1330;-75
2023/03/16 09:46:59;;;;;;;;;;;;;;;22.17;27.38;97278.28;4989480;28;1219;-75
2023/03/16 09:49:27;;;;;;;;;;;;;;;21.96;27.61;97279.09;5006193;28;1313;-75
2023/03/16 09:52:12;;;;;;;;;;;;;;;21.98;27.62;97285.13;5007509;28;1321;-75
2023/03/16 09:54:53;;;;;;;;;;;;;;;21.94;27.84;97284.47;5005969;28;1152;-75
2023/03/16 09:57:39;;;;;;;;;;;;;;;21.99;27.59;97286.69;5004118;28;1906;-75
2023/03/16 10:00:20;;;;;;;;;;;;;;;22.04;27.49;97283.25;4991215;28;1116;-75
2023/03/16 10:02:52;;;;;;;;;;;;;;;22.00;27.30;97282.59;5006446;28;1270;-75
2023/03/16 10:05:21;;;;;;;;;;;;;;;21.87;27.86;97279.09;5021634;28;1144;-75
2023/03/16 10:07:51;;;;;;;;;;;;;;;21.95;27.27;97288.88;5001482;28;1210;-76
2023/03/16 10:10:19;;;;;;;;;;;;;;;21.89;27.53;97287.91;4986987;28;1167;-75
2023/03/16 10:12:46;;;;;;;;;;;;;;;21.90;27.60;97289.47;4986222;28;1227;-75
2023/03/16 10:15:12;;;;;;;;;;;;;;;21.89;27.61;97287.91;4984981;28;1379;-75
2023/03/16 10:17:39;;;;;;;;;;;;;;;22.10;27.33;97295.53;4985155;28;2007;-75
2023/03/16 10:20:10;;;;;;;;;;;;;;;22.20;27.59;97288.69;4965213;28;1235;-75
2023/03/16 10:22:41;;;;;;;;;;;;;;;22.42;27.36;97290.66;4958095;28;1005;-75
2023/03/16 10:25:11;;;;;;;;;;;;;;;22.08;27.49;97295.25;4958149;28;911;-75
2023/03/16 10:27:37;;;;;;;;;;;;;;;22.12;27.46;97290.22;4974034;28;1007;-74
2023/03/16 10:30:06;;;;;;;;;;;;;;;21.77;27.97;97293.19;4977703;28;1490;-75
2023/03/16 10:32:33;;;;;;;;;;;;;;;21.82;27.86;97301.09;4978132;28;1320;-76
2023/03/16 10:35:03;;;;;;;;;;;;;;;21.91;27.58;97296.72;4958737;28;1222;-75
2023/03/16 10:37:29;;;;;;;;;;;;;;;21.77;27.84;97298.84;4942763;29;1899;-75
2023/03/16 10:39:56;;;;;;;;;;;;;;;21.90;27.80;97300.78;4942581;29;996;-75
2023/03/16 10:42:21;;;;;;;;;;;;;;;21.87;27.73;97307.41;4958470;29;1493;-75
2023/03/16 10:44:47;;;;;;;;;;;;;;;21.96;27.43;97304.59;4942100;29;1503;-75
2023/03/16 10:47:21;;;;;;;;;;;;;;;21.63;27.97;97304.25;4958333;29;988;-75
2023/03/16 10:49:48;;;;;;;;;;;;;;;22.10;27.38;97306.88;4957986;29;987;-75
2023/03/16 10:52:24;;;;;;;;;;;;;;;22.20;27.18;97314.19;4958146;29;1044;-75
2023/03/16 10:54:59;;;;;;;;;;;;;;;22.17;27.17;97309.44;4958128;29;1032;-75
2023/03/16 10:57:26;;;;;;;;;;;;;;;22.12;27.04;97312.88;4958313;29;1910;-75
2023/03/16 10:59:52;;;;;;;;;;;;;;;21.85;27.49;97307.84;4942131;29;1461;-75
2023/03/16 11:02:22;;;;;;;;;;;;;;;21.83;27.54;97308.31;4919695;29;1140;-75
2023/03/16 11:04:48;;;;;;;;;;;;;;;21.79;27.52;97312.53;4885472;29;1034;-74
2023/03/16 11:07:15;;;;;;;;;;;;;;;21.84;27.67;97309.09;4904003;29;957;-75
2023/03/16 11:09:40;;;;;;;;;;;;;;;21.88;27.35;97314.66;4888739;29;952;-75
2023/03/16 11:12:24;;;;;;;;;;;;;;;22.30;26.85;97318.66;4904099;29;1143;-75
2023/03/16 11:14:50;;;;;;;;;;;;;;;22.30;27.04;97317.88;4919507;29;992;-75
2023/03/16 11:17:17;;;;;;;;;;;;;;;21.97;27.22;97314.69;4887920;29;1990;-75
2023/03/16 11:19:50;;;;;;;;;;;;;;;22.15;27.16;97323.31;4884911;29;953;-74
2023/03/16 11:22:16;;;;;;;;;;;;;;;21.71;27.59;97317.69;4900617;29;1035;-75
2023/03/16 11:24:56;;;;;;;;;;;;;;;21.85;27.41;97319.19;4884897;29;1055;-75
2023/03/16 11:27:23;;;;;;;;;;;;;;;22.36;26.99;97322.44;4900677;29;983;-75
2023/03/16 11:29:58;;;;;;;;;;;;;;;22.68;26.51;97323.16;4900568;29;1491;-75
2023/03/16 11:32:25;;;;;;;;;;;;;;;22.28;27.05;97320.38;4847475;29;1199;-75
2023/03/16 11:34:52;;;;;;;;;;;;;;;21.94;27.13;97312.78;4863229;29;1344;-75
2023/03/16 11:37:29;;;;;;;;;;;;;;;21.89;27.25;97321.88;4863014;29;1972;-75
2023/03/16 11:40:13;;;;;;;;;;;;;;;21.71;27.62;97320.53;4883378;29;898;-75
2023/03/16 11:42:42;;;;;;;;;;;;;;;21.75;27.57;97324.00;4912655;29;1012;-75
2023/03/16 11:45:08;;;;;;;;;;;;;;;22.16;26.99;97326.94;4918959;29;988;-75
2023/03/16 11:47:52;;;;;;;;;;;;;;;22.40;26.56;97324.34;4919081;29;1011;-75
2023/03/16 11:50:18;;;;;;;;;;;;;;;22.01;27.32;97329.50;4909489;29;1152;-75
2023/03/16 11:52:56;;;;;;;;;;;;;;;21.99;26.99;97332.00;4937918;29;1103;-75
2023/03/16 11:55:33;;;;;;;;;;;;;;;21.94;27.33;97329.78;4938135;29;930;-76
2023/03/16 11:58:17;;;;;;;;;;;;;;;21.87;27.29;97324.41;4937742;29;1895;-76
2023/03/16 12:00:45;;;;;;;;;;;;;;;21.86;27.63;97326.41;4918938;29;1168;-75
2023/03/16 12:03:29;;;;;;;;;;;;;;;22.20;27.00;97333.25;4942106;28;1190;-76
2023/03/16 12:06:01;;;;;;;;;;;;;;;22.05;26.84;97332.97;4960298;28;1136;-76
2023/03/16 12:08:32;;;;;;;;;;;;;;;22.04;26.97;97331.41;4976030;28;997;-76
2023/03/16 12:10:59;;;;;;;;;;;;;;;22.01;26.98;97335.16;4960007;28;1038;-76
2023/03/16 12:13:29;;;;;;;;;;;;;;;21.87;27.33;97341.41;4976278;28;1044;-76
2023/03/16 12:16:21;;;;;;;;;;;;;;;21.60;27.73;97356.91;4975952;28;1132;-75
2023/03/16 12:18:48;;;;;;;;;;;;;;;22.11;26.90;97339.66;4918830;29;1915;-76
2023/03/16 12:21:18;;;;;;;;;;;;;;;22.15;26.79;97345.97;4903139;29;1075;-76
2023/03/16 12:23:51;;;;;;;;;;;;;;;21.85;27.03;97345.47;4902812;29;1262;-76
2023/03/16 12:26:17;;;;;;;;;;;;;;;22.01;27.00;97355.00;4902789;29;979;-76
2023/03/16 12:28:42;;;;;;;;;;;;;;;21.91;27.08;97365.47;4903043;29;1062;-76
2023/03/16 12:31:08;;;;;;;;;;;;;;;21.82;27.21;97363.38;4902867;29;1002;-76
2023/03/16 12:33:33;;;;;;;;;;;;;;;21.87;27.21;97358.38;4918397;29;952;-76
2023/03/16 12:36:05;;;;;;;;;;;;;;;21.89;27.05;97367.19;4902915;29;1147;-76
2023/03/16 12:38:49;;;;;;;;;;;;;;;21.91;27.38;97361.84;4902847;29;1918;-76
2023/03/16 12:41:33;;;;;;;;;;;;;;;22.28;26.55;97368.56;4918442;29;946;-76
2023/03/16 12:43:58;;;;;;;;;;;;;;;22.30;26.60;97369.66;4918277;29;924;-76
2023/03/16 12:46:27;;;;;;;;;;;;;;;21.98;27.26;97364.44;4918396;29;1017;-75
2023/03/16 12:48:55;;;;;;;;;;;;;;;21.95;26.94;97365.34;4886886;29;1106;-76
2023/03/16 12:51:20;;;;;;;;;;;;;;;22.01;27.11;97364.28;4886685;29;1187;-76
2023/03/16 12:53:52;;;;;;;;;;;;;;;21.94;27.23;97375.88;4877811;29;1144;-75
2023/03/16 12:56:18;;;;;;;;;;;;;;;21.97;27.09;97377.03;4910074;29;1130;-76
2023/03/16 12:58:45;;;;;;;;;;;;;;;22.12;26.88;97378.06;4917601;29;1918;-76
2023/03/16 13:01:11;;;;;;;;;;;;;;;22.39;26.56;97382.31;4902136;29;923;-75
2023/03/16 13:03:37;;;;;;;;;;;;;;;22.06;27.24;97377.06;4901851;29;1077;-75
2023/03/16 13:06:02;;;;;;;;;;;;;;;22.06;26.87;97377.06;4902186;29;918;-76